createdAt,value
2022-09-04T00:02:35.820Z,4.10
2022-09-04T00:05:31.725Z,4.22
2022-09-04T00:08:36.111Z,4.07
2022-09-04T00:11:14.687Z,4.15
2022-09-04T00:13:46.751Z,3.75
2022-09-04T00:16:28.625Z,3.20
2022-09-04T00:19:03.397Z,3.07
2022-09-04T00:21:36.908Z,3.70
2022-09-04T00:24:08.941Z,3.70
2022-09-04T00:26:56.974Z,3.90
2022-09-04T00:29:58.840Z,3.70
2022-09-04T00:32:30.211Z,4.10
2022-09-04T00:35:31.596Z,4.07
2022-09-04T00:38:32.783Z,5.18
2022-09-04T00:41:44.135Z,3.63
2022-09-04T00:44:31.028Z,3.58
2022-09-04T00:47:28.142Z,3.78
2022-09-04T00:50:42.553Z,3.65
2022-09-04T00:53:25.171Z,3.88
2022-09-04T00:56:18.670Z,4.35
2022-09-04T00:59:01.751Z,4.67
2022-09-04T01:01:29.863Z,4.60
2022-09-04T01:04:17.522Z,4.30
2022-09-04T01:07:02.652Z,4.82
2022-09-04T01:10:08.789Z,4.47
2022-09-04T01:12:57.981Z,4.20
2022-09-04T01:15:34.780Z,4.82
2022-09-04T01:18:29.903Z,4.28
2022-09-04T01:21:15.465Z,4.68
2022-09-04T01:24:08.131Z,4.50
2022-09-04T01:26:37.624Z,4.60
2022-09-04T01:29:21.278Z,4.80
2022-09-04T01:31:55.778Z,5.18
2022-09-04T01:34:36.400Z,4.47
2022-09-04T01:37:28.713Z,4.57
2022-09-04T01:40:35.087Z,5.05
2022-09-04T01:43:23.766Z,5.00
2022-09-04T01:46:02.463Z,4.70
2022-09-04T01:48:52.508Z,4.70
2022-09-04T01:51:34.561Z,4.97
2022-09-04T01:54:31.612Z,4.70
2022-09-04T01:57:10.793Z,4.90
2022-09-04T01:59:43.754Z,4.68
2022-09-04T02:02:20.992Z,5.00
2022-09-04T02:04:58.696Z,4.85
2022-09-04T02:07:36.403Z,4.63
2022-09-04T02:10:11.139Z,4.38
2022-09-04T02:13:02.962Z,4.05
2022-09-04T02:15:47.343Z,4.57
2022-09-04T02:18:31.751Z,4.57
2022-09-04T02:21:24.510Z,4.55
2022-09-04T02:24:17.221Z,4.72
2022-09-04T02:27:00.662Z,5.28
2022-09-04T02:29:36.406Z,5.75
2022-09-04T02:32:25.880Z,5.13
2022-09-04T02:34:57.782Z,5.82
2022-09-04T02:37:55.499Z,6.20
2022-09-04T02:40:33.248Z,6.40
2022-09-04T02:42:59.960Z,6.55
2022-09-04T02:46:00.286Z,7.07
2022-09-04T02:48:57.857Z,8.55
2022-09-04T02:51:38.909Z,7.55
2022-09-04T02:54:08.395Z,7.68
2022-09-04T02:56:44.097Z,8.07
2022-09-04T02:59:44.498Z,9.55
2022-09-04T03:02:34.644Z,8.68
2022-09-04T03:05:08.368Z,10.02
2022-09-04T03:07:41.078Z,10.50
2022-09-04T03:12:48.006Z,11.18
2022-09-04T03:15:36.115Z,10.70
2022-09-04T03:18:17.474Z,12.95
2022-09-04T03:21:01.902Z,11.60
2022-09-04T03:23:52.700Z,11.60
2022-09-04T03:26:27.662Z,11.77
2022-09-04T03:29:24.872Z,11.60
2022-09-04T03:32:16.695Z,11.77
2022-09-04T03:35:02.570Z,12.88
2022-09-04T03:38:00.109Z,12.73
2022-09-04T03:40:35.928Z,12.00
2022-09-04T03:43:08.486Z,13.60
2022-09-04T03:46:08.908Z,12.15
2022-09-04T03:48:54.472Z,12.77
2022-09-04T03:51:33.430Z,12.18
2022-09-04T03:54:08.828Z,12.45
2022-09-04T03:57:08.080Z,13.20
2022-09-04T03:59:44.907Z,12.30
2022-09-04T04:02:20.727Z,12.25
2022-09-04T04:05:00.487Z,13.98
2022-09-04T04:07:27.265Z,13.70
2022-09-04T04:09:59.987Z,13.48
2022-09-04T04:15:33.489Z,13.43
2022-09-04T04:18:47.970Z,12.90
2022-09-04T04:21:55.068Z,14.60
2022-09-04T04:24:54.399Z,14.52
2022-09-04T04:27:38.541Z,15.45
2022-09-04T04:30:12.839Z,16.67
2022-09-04T04:32:53.215Z,15.07
2022-09-04T04:35:38.577Z,15.40
2022-09-04T04:38:20.647Z,15.25
2022-09-04T04:40:53.310Z,15.82
2022-09-04T04:43:31.977Z,14.50
2022-09-04T04:46:04.979Z,18.48
2022-09-04T04:49:11.726Z,17.30
2022-09-04T04:51:40.923Z,14.80
2022-09-04T04:54:25.973Z,14.30
2022-09-04T04:57:21.084Z,14.45
2022-09-04T05:00:25.231Z,13.48
2022-09-04T05:03:32.497Z,12.85
2022-09-04T05:05:59.261Z,14.20
2022-09-04T05:08:42.004Z,15.52
2022-09-04T05:12:03.847Z,14.30
2022-09-04T05:14:42.561Z,14.50
2022-09-04T05:17:27.719Z,14.48
2022-09-04T05:20:27.310Z,14.57
2022-09-04T05:23:09.398Z,16.77
2022-09-04T05:25:36.169Z,14.93
2022-09-04T05:28:23.098Z,14.88
2022-09-04T05:30:59.375Z,13.38
2022-09-04T05:34:00.417Z,13.07
2022-09-04T05:36:37.668Z,12.73
2022-09-04T05:39:10.526Z,11.93
2022-09-04T05:42:07.203Z,13.05
2022-09-04T05:44:58.819Z,12.10
2022-09-04T05:47:35.331Z,11.55
2022-09-04T05:50:21.313Z,10.98
2022-09-04T05:53:39.182Z,10.55
2022-09-04T05:56:33.055Z,9.75
2022-09-04T05:59:14.812Z,10.85
2022-09-04T06:02:02.023Z,9.35
2022-09-04T06:04:48.471Z,8.85
2022-09-04T06:07:27.752Z,9.00
2022-09-04T06:10:19.208Z,8.82
2022-09-04T06:12:51.801Z,7.32
2022-09-04T06:15:48.467Z,8.00
2022-09-04T06:19:03.465Z,7.53
2022-09-04T06:21:55.137Z,7.90
2022-09-04T06:24:54.854Z,7.22
2022-09-04T06:27:28.897Z,6.47
2022-09-04T06:30:11.169Z,6.95
2022-09-04T06:32:44.089Z,6.63
2022-09-04T06:35:43.993Z,5.72
2022-09-04T06:38:36.779Z,6.60
2022-09-04T06:41:08.724Z,5.38
2022-09-04T06:44:05.434Z,5.80
2022-09-04T06:47:10.863Z,5.63
2022-09-04T06:50:02.214Z,4.70
2022-09-04T06:52:40.894Z,4.72
2022-09-04T06:55:22.298Z,4.68
2022-09-04T06:58:18.664Z,4.68
2022-09-04T07:00:53.599Z,3.78
2022-09-04T07:03:46.582Z,3.45
2022-09-04T07:06:31.316Z,4.10
2022-09-04T07:09:30.942Z,3.00
2022-09-04T07:12:19.562Z,4.20
2022-09-04T07:14:55.492Z,3.20
2022-09-04T07:17:39.727Z,3.25
2022-09-04T07:20:28.130Z,3.22
2022-09-04T07:23:10.402Z,3.40
2022-09-04T07:26:03.670Z,3.00
2022-09-04T07:28:56.485Z,1.98
2022-09-04T07:31:35.070Z,3.00
2022-09-04T07:34:09.322Z,2.05
2022-09-04T07:37:06.087Z,1.70
2022-09-04T07:39:48.449Z,1.88
2022-09-04T07:42:31.257Z,1.40
2022-09-04T07:45:22.653Z,1.30
2022-09-04T07:48:35.027Z,1.65
2022-09-04T07:51:10.815Z,1.30
2022-09-04T07:54:08.135Z,1.00
2022-09-04T07:57:16.537Z,1.00
2022-09-04T07:59:55.501Z,0.90
2022-09-04T08:02:37.892Z,1.20
2022-09-04T08:05:07.413Z,1.08
2022-09-04T08:07:34.209Z,1.70
2022-09-04T08:10:22.344Z,0.80
2022-09-04T08:13:20.935Z,0.55
2022-09-04T08:16:05.921Z,0.70
2022-09-04T08:18:53.314Z,0.80
2022-09-04T08:21:25.930Z,0.80
2022-09-04T08:27:03.300Z,1.10
2022-09-04T08:29:40.566Z,0.90
2022-09-04T08:32:38.190Z,0.50
2022-09-04T08:35:31.618Z,0.90
2022-09-04T08:41:07.094Z,0.57
2022-09-04T08:43:36.706Z,0.65
2022-09-04T08:46:28.789Z,1.00
2022-09-04T08:49:33.152Z,1.10
2022-09-04T08:52:24.596Z,0.60
2022-09-04T08:55:02.003Z,0.65
2022-09-04T08:57:47.462Z,0.93
2022-09-04T09:00:16.922Z,0.57
2022-09-04T09:03:35.371Z,0.50
2022-09-04T09:06:09.486Z,0.60
2022-09-04T09:08:57.598Z,0.80
2022-09-04T09:11:43.647Z,0.60
2022-09-04T09:14:38.822Z,0.80
2022-09-04T09:17:27.997Z,0.70
2022-09-04T09:20:22.478Z,0.80
2022-09-04T09:23:34.275Z,0.93
2022-09-04T09:26:06.961Z,0.70
2022-09-04T09:28:46.214Z,0.60
2022-09-04T09:31:50.677Z,0.63
2022-09-04T09:35:01.962Z,0.50
2022-09-04T09:38:06.341Z,0.60
2022-09-04T09:40:48.340Z,0.70
2022-09-04T09:43:58.690Z,0.77
2022-09-04T09:46:58.510Z,0.55
2022-09-04T09:49:50.031Z,0.45
2022-09-04T09:52:47.432Z,0.63
2022-09-04T09:55:48.533Z,0.65
2022-09-04T09:58:44.675Z,0.80
2022-09-04T10:01:36.614Z,0.63
2022-09-04T10:04:14.947Z,0.80
2022-09-04T10:06:56.478Z,0.40
2022-09-04T10:09:42.373Z,0.82
2022-09-04T10:12:36.701Z,0.70
2022-09-04T10:15:22.276Z,0.65
2022-09-04T10:18:26.712Z,0.60
2022-09-04T10:21:13.254Z,0.50
2022-09-04T10:23:59.010Z,0.70
2022-09-04T10:26:52.411Z,0.65
2022-09-04T10:29:39.662Z,0.77
2022-09-04T10:32:21.279Z,0.73
2022-09-04T10:35:14.950Z,0.80
2022-09-04T10:38:03.346Z,0.70
2022-09-04T10:40:46.922Z,0.80
2022-09-04T10:43:17.487Z,0.50
2022-09-04T10:45:57.455Z,0.77
2022-09-04T10:48:45.152Z,0.52
2022-09-04T10:51:21.509Z,0.70
2022-09-04T10:53:55.014Z,0.60
2022-09-04T10:56:36.542Z,0.52
2022-09-04T10:59:38.400Z,0.60
2022-09-04T11:02:11.021Z,0.50
2022-09-04T11:05:15.515Z,0.85
2022-09-04T11:08:09.431Z,0.55
2022-09-04T11:11:14.346Z,0.50
2022-09-04T11:14:15.170Z,0.40
2022-09-04T11:17:10.285Z,0.68
2022-09-04T11:20:04.118Z,0.57
2022-09-04T11:22:38.864Z,0.60
2022-09-04T11:25:44.762Z,0.70
2022-09-04T11:28:47.895Z,0.55
2022-09-04T11:34:49.436Z,0.60
2022-09-04T11:37:57.882Z,0.50
2022-09-04T11:40:58.857Z,0.60
2022-09-04T11:43:45.381Z,0.93
2022-09-04T11:46:27.443Z,0.45
2022-09-04T11:49:26.394Z,0.93
2022-09-04T11:52:09.706Z,0.60
2022-09-04T11:54:54.464Z,0.90
2022-09-04T11:57:56.989Z,0.60
2022-09-04T12:00:24.767Z,1.45
2022-09-04T12:03:14.329Z,0.70
2022-09-04T12:05:53.188Z,0.77
2022-09-04T12:08:38.771Z,0.88
2022-09-04T12:11:32.926Z,0.60
2022-09-04T12:14:09.726Z,0.70
2022-09-04T12:16:55.334Z,0.70
2022-09-04T12:19:42.591Z,1.02
2022-09-04T12:22:37.548Z,0.68
2022-09-04T12:25:45.400Z,0.85
2022-09-04T12:28:35.337Z,0.80
2022-09-04T12:31:51.295Z,0.60
2022-09-04T12:34:43.132Z,0.70
2022-09-04T12:37:16.546Z,0.60
2022-09-04T12:39:57.346Z,0.60
2022-09-04T12:43:18.183Z,0.70
2022-09-04T12:46:10.983Z,0.50
2022-09-04T12:49:04.252Z,0.52
2022-09-04T12:51:54.308Z,0.52
2022-09-04T12:54:39.107Z,0.60
2022-09-04T12:57:27.132Z,0.63
2022-09-04T13:00:07.086Z,0.50
2022-09-04T13:02:52.363Z,0.60
2022-09-04T13:05:25.443Z,0.60
2022-09-04T13:08:19.660Z,0.80
2022-09-04T13:11:15.592Z,0.90
2022-09-04T13:13:46.185Z,1.05
2022-09-04T13:16:27.657Z,0.75
2022-09-04T13:19:31.434Z,0.90
2022-09-04T13:22:41.473Z,0.50
2022-09-04T13:25:27.522Z,0.65
2022-09-04T13:28:03.289Z,1.00
2022-09-04T13:30:55.483Z,0.70
2022-09-04T13:33:42.330Z,0.80
2022-09-04T13:36:29.043Z,1.02
2022-09-04T13:39:22.706Z,0.88
2022-09-04T13:42:11.050Z,0.50
2022-09-04T13:45:06.707Z,0.60
2022-09-04T13:47:39.607Z,1.10
2022-09-04T13:50:17.442Z,0.82
2022-09-04T13:52:48.077Z,0.80
2022-09-04T13:55:29.490Z,0.70
2022-09-04T13:58:47.784Z,0.82
2022-09-04T14:01:30.005Z,0.98
2022-09-04T14:04:02.719Z,0.80
2022-09-04T14:06:44.701Z,0.55
2022-09-04T14:09:12.321Z,0.93
2022-09-04T14:11:39.577Z,0.77
2022-09-04T14:14:15.343Z,0.70
2022-09-04T14:16:44.508Z,0.47
2022-09-04T14:19:27.546Z,0.77
2022-09-04T14:22:33.339Z,0.60
2022-09-04T14:27:59.112Z,0.70
2022-09-04T14:30:29.883Z,0.55
2022-09-04T14:32:06.694Z,0.60
2022-09-04T14:33:29.023Z,0.80
2022-09-04T14:36:02.991Z,0.70
2022-09-04T14:38:54.579Z,0.60
2022-09-04T14:41:44.702Z,0.70
2022-09-04T14:44:22.668Z,0.50
2022-09-04T14:47:02.401Z,0.70
2022-09-04T14:49:47.499Z,0.70
2022-09-04T14:52:22.846Z,0.47
2022-09-04T14:55:02.344Z,0.60
2022-09-04T14:57:51.307Z,0.70
2022-09-04T15:00:20.339Z,0.95
2022-09-04T15:03:18.127Z,0.70
2022-09-04T15:05:53.632Z,0.60
2022-09-04T15:08:40.191Z,0.43
2022-09-04T15:11:37.849Z,0.45
2022-09-04T15:14:26.454Z,1.17
2022-09-04T15:17:00.284Z,0.50
2022-09-04T15:20:05.961Z,0.60
2022-09-04T15:22:47.331Z,0.52
2022-09-04T15:25:56.883Z,0.60
2022-09-04T15:31:15.506Z,0.50
2022-09-04T15:33:46.032Z,0.47
2022-09-04T15:36:30.797Z,0.60
2022-09-04T15:39:02.533Z,0.50
2022-09-04T15:41:53.903Z,0.73
2022-09-04T15:44:30.597Z,0.50
2022-09-04T15:47:00.811Z,0.43
2022-09-04T15:49:49.008Z,0.70
2022-09-04T15:52:41.696Z,0.47
2022-09-04T15:55:31.836Z,0.57
2022-09-04T15:58:48.076Z,0.52
2022-09-04T16:01:47.621Z,0.50
2022-09-04T16:04:26.460Z,0.60
2022-09-04T16:07:20.667Z,0.60
2022-09-04T16:09:57.072Z,0.55
2022-09-04T16:12:49.521Z,0.60
2022-09-04T16:15:22.801Z,0.50
2022-09-04T16:17:56.413Z,0.60
2022-09-04T16:21:07.648Z,0.50
2022-09-04T16:23:59.566Z,0.50
2022-09-04T16:26:31.548Z,0.55
2022-09-04T16:29:26.345Z,0.70
2022-09-04T16:31:57.267Z,0.60
2022-09-04T16:34:37.129Z,0.55
2022-09-04T16:37:45.627Z,0.50
2022-09-04T16:40:18.873Z,0.70
2022-09-04T16:42:57.761Z,0.50
2022-09-04T16:45:30.936Z,0.45
2022-09-04T16:48:33.467Z,0.35
2022-09-04T16:51:25.928Z,0.70
2022-09-04T16:54:04.395Z,0.63
2022-09-04T16:56:43.820Z,0.70
2022-09-04T16:59:27.750Z,0.80
2022-09-04T17:02:32.260Z,0.50
2022-09-04T17:05:40.441Z,0.50
2022-09-04T17:08:29.321Z,0.60
2022-09-04T17:10:59.747Z,0.60
2022-09-04T17:13:53.036Z,0.60
2022-09-04T17:16:25.420Z,0.50
2022-09-04T17:18:55.976Z,0.50
2022-09-04T17:26:28.084Z,0.73
2022-09-04T17:29:11.308Z,0.73
2022-09-04T17:29:18.360Z,0.82
2022-09-04T17:30:43.682Z,0.70
2022-09-04T17:40:41.465Z,0.70
2022-09-04T17:40:41.635Z,0.70
2022-09-04T17:40:49.127Z,0.60
2022-09-04T17:43:24.484Z,0.60
2022-09-04T17:46:12.947Z,0.55
2022-09-04T17:48:45.264Z,0.80
2022-09-04T17:51:29.431Z,1.20
2022-09-04T17:54:02.338Z,0.77
2022-09-04T17:56:40.928Z,0.77
2022-09-04T17:59:36.896Z,0.60
2022-09-04T18:02:20.208Z,0.60
2022-09-04T18:04:57.502Z,0.60
2022-09-04T18:08:09.977Z,1.25
2022-09-04T18:10:31.439Z,1.30
2022-09-04T18:13:38.065Z,0.60
2022-09-04T18:16:11.720Z,0.65
2022-09-04T18:18:51.018Z,0.50
2022-09-04T18:21:53.921Z,0.70
2022-09-04T18:24:38.690Z,0.52
2022-09-04T18:27:21.295Z,0.70
2022-09-04T18:33:14.128Z,0.60
2022-09-04T18:37:20.965Z,0.40
2022-09-04T18:37:21.502Z,0.93
2022-09-04T18:39:33.958Z,1.58
2022-09-04T18:50:20.172Z,0.90
2022-09-04T18:50:33.993Z,1.20
2022-09-04T18:50:52.395Z,0.80
2022-09-04T18:54:00.022Z,0.88
2022-09-04T18:56:36.193Z,0.60
2022-09-04T18:59:22.618Z,0.80
2022-09-04T19:02:29.319Z,0.47
2022-09-04T19:05:14.628Z,0.70
2022-09-04T19:07:44.607Z,0.70
2022-09-04T19:10:23.317Z,0.90
2022-09-04T19:13:02.046Z,0.93
2022-09-04T19:15:50.161Z,0.73
2022-09-04T19:18:27.254Z,0.77
2022-09-04T19:21:15.699Z,0.80
2022-09-04T19:23:45.841Z,0.63
2022-09-04T19:26:20.353Z,0.85
2022-09-04T19:28:54.148Z,1.10
2022-09-04T19:31:35.281Z,0.85
2022-09-04T19:34:40.683Z,1.15
2022-09-04T19:41:35.476Z,0.70
2022-09-04T19:45:56.493Z,1.00
2022-09-04T19:46:17.047Z,0.68
2022-09-04T19:47:36.771Z,1.00
2022-09-04T19:53:19.979Z,0.68
2022-09-04T19:53:41.122Z,1.00
2022-09-04T19:56:28.200Z,0.88
2022-09-04T19:59:35.935Z,0.85
2022-09-04T20:02:38.580Z,0.65
2022-09-04T20:05:24.933Z,1.38
2022-09-04T20:08:20.149Z,0.80
2022-09-04T20:11:35.944Z,0.80
2022-09-04T20:14:21.987Z,0.93
2022-09-04T20:17:24.462Z,0.80
2022-09-04T20:20:03.828Z,0.88
2022-09-04T20:22:57.357Z,1.00
2022-09-04T20:25:53.889Z,1.75
2022-09-04T20:28:36.578Z,0.95
2022-09-04T20:34:16.749Z,1.00
2022-09-04T20:36:49.433Z,0.75
2022-09-04T20:39:36.282Z,0.75
2022-09-04T20:42:12.967Z,0.80
2022-09-04T20:45:52.712Z,1.00
2022-09-04T20:52:41.853Z,0.93
2022-09-04T20:53:05.873Z,1.33
2022-09-04T20:53:45.985Z,0.70
2022-09-04T20:57:00.973Z,0.60
2022-09-04T21:03:12.464Z,1.20
2022-09-04T21:03:17.386Z,0.82
2022-09-04T21:05:42.638Z,1.20
2022-09-04T21:08:27.206Z,0.82
2022-09-04T21:11:41.704Z,0.68
2022-09-04T21:14:31.993Z,0.75
2022-09-04T21:17:35.806Z,0.60
2022-09-04T21:20:19.115Z,0.80
2022-09-04T21:23:07.788Z,0.70
2022-09-04T21:26:08.615Z,0.93
2022-09-04T21:29:10.713Z,1.50
2022-09-04T21:32:10.008Z,0.93
2022-09-04T21:34:44.022Z,0.77
2022-09-04T21:37:28.429Z,1.23
2022-09-04T21:40:31.033Z,0.68
2022-09-04T21:43:36.357Z,7.60
2022-09-04T21:46:47.289Z,1.90
2022-09-04T21:49:32.800Z,1.77
2022-09-04T21:52:30.463Z,1.23
2022-09-04T22:01:02.033Z,1.02
2022-09-04T22:02:32.091Z,1.00
2022-09-04T22:02:40.141Z,0.80
2022-09-04T22:04:39.219Z,1.00
2022-09-04T22:11:31.384Z,0.82
2022-09-04T22:13:39.969Z,0.82
2022-09-04T22:13:48.211Z,0.73
2022-09-04T22:16:29.452Z,0.90
2022-09-04T22:19:21.163Z,0.70
2022-09-04T22:22:25.598Z,0.93
2022-09-04T22:25:16.119Z,0.55
2022-09-04T22:28:16.018Z,0.70
2022-09-04T22:31:17.005Z,0.50
2022-09-04T22:34:15.897Z,0.95
2022-09-04T22:37:05.091Z,0.80
2022-09-04T22:39:50.680Z,0.80
2022-09-04T22:42:52.933Z,0.70
2022-09-04T22:45:53.375Z,0.50
2022-09-04T22:48:47.225Z,1.30
2022-09-04T22:51:55.443Z,0.70
2022-09-04T22:54:38.024Z,0.70
2022-09-04T22:57:12.697Z,0.60
2022-09-04T22:59:42.344Z,0.68
2022-09-04T23:02:20.250Z,0.57
2022-09-04T23:05:20.515Z,0.70
2022-09-04T23:13:42.133Z,0.70
2022-09-04T23:13:50.172Z,0.70
2022-09-04T23:14:06.389Z,0.52
2022-09-04T23:16:46.705Z,0.50
2022-09-04T23:22:46.108Z,0.50
2022-09-04T23:26:38.383Z,0.60
2022-09-04T23:26:47.563Z,0.50
2022-09-04T23:29:22.313Z,0.80
2022-09-04T23:32:09.927Z,0.70
2022-09-04T23:35:13.697Z,0.60
2022-09-04T23:38:00.907Z,0.60
2022-09-04T23:40:43.081Z,0.77
2022-09-04T23:43:38.094Z,0.60
2022-09-04T23:46:40.929Z,0.60
2022-09-04T23:49:38.174Z,0.50
2022-09-04T23:53:06.705Z,0.50
2022-09-04T23:55:49.767Z,0.80
2022-09-04T23:58:54.136Z,0.52
